sensor_id;sensor_type;location;lat;lon;timestamp;temperature;humidity
13711;DHT22;6927;51.256;9.410;2023-07-30T00:01:14;16.70;99.90
13711;DHT22;6927;51.256;9.410;2023-07-30T00:03:40;16.70;99.90
13711;DHT22;6927;51.256;9.410;2023-07-30T00:06:05;16.60;99.90
13711;DHT22;6927;51.256;9.410;2023-07-30T00:08:31;16.60;99.90
13711;DHT22;6927;51.256;9.410;2023-07-30T00:10:57;16.60;99.90
13711;DHT22;6927;51.256;9.410;2023-07-30T00:13:24;16.50;99.90
13711;DHT22;6927;51.256;9.410;2023-07-30T00:15:50;16.50;99.90
13711;DHT22;6927;51.256;9.410;2023-07-30T00:18:16;16.40;99.90
13711;DHT22;6927;51.256;9.410;2023-07-30T00:20:42;16.40;99.90
13711;DHT22;6927;51.256;9.410;2023-07-30T00:23:08;16.30;99.90
13711;DHT22;6927;51.256;9.410;2023-07-30T00:25:33;16.30;99.90
13711;DHT22;6927;51.256;9.410;2023-07-30T00:27:59;16.30;99.90
13711;DHT22;6927;51.256;9.410;2023-07-30T00:30:25;16.20;99.90
13711;DHT22;6927;51.256;9.410;2023-07-30T00:32:50;16.20;99.90
13711;DHT22;6927;51.256;9.410;2023-07-30T00:35:16;16.20;99.90
13711;DHT22;6927;51.256;9.410;2023-07-30T00:37:42;16.20;99.90
13711;DHT22;6927;51.256;9.410;2023-07-30T00:40:07;16.20;99.90
13711;DHT22;6927;51.256;9.410;2023-07-30T00:42:33;16.20;99.90
13711;DHT22;6927;51.256;9.410;2023-07-30T00:44:59;16.20;99.90
13711;DHT22;6927;51.256;9.410;2023-07-30T00:47:25;16.20;99.90
13711;DHT22;6927;51.256;9.410;2023-07-30T00:49:51;16.20;99.90
13711;DHT22;6927;51.256;9.410;2023-07-30T00:52:18;16.20;99.90
13711;DHT22;6927;51.256;9.410;2023-07-30T00:54:45;16.30;99.90
13711;DHT22;6927;51.256;9.410;2023-07-30T00:57:12;16.20;99.90
13711;DHT22;6927;51.256;9.410;2023-07-30T00:59:38;16.20;99.90
13711;DHT22;6927;51.256;9.410;2023-07-30T01:02:04;16.20;99.90
13711;DHT22;6927;51.256;9.410;2023-07-30T01:04:30;16.20;99.90
13711;DHT22;6927;51.256;9.410;2023-07-30T01:06:56;16.20;99.90
13711;DHT22;6927;51.256;9.410;2023-07-30T01:09:22;16.20;99.90
13711;DHT22;6927;51.256;9.410;2023-07-30T01:11:48;16.30;99.90
13711;DHT22;6927;51.256;9.410;2023-07-30T01:14:14;16.30;99.90
13711;DHT22;6927;51.256;9.410;2023-07-30T01:16:41;16.20;99.90
13711;DHT22;6927;51.256;9.410;2023-07-30T01:19:07;16.20;99.90
13711;DHT22;6927;51.256;9.410;2023-07-30T01:21:34;16.20;99.90
13711;DHT22;6927;51.256;9.410;2023-07-30T01:23:59;16.20;99.90
13711;DHT22;6927;51.256;9.410;2023-07-30T01:26:34;16.30;99.90
13711;DHT22;6927;51.256;9.410;2023-07-30T01:29:01;16.30;99.90
13711;DHT22;6927;51.256;9.410;2023-07-30T01:31:30;16.30;99.90
13711;DHT22;6927;51.256;9.410;2023-07-30T01:33:58;16.30;99.90
13711;DHT22;6927;51.256;9.410;2023-07-30T01:36:24;16.30;99.90
13711;DHT22;6927;51.256;9.410;2023-07-30T01:38:51;16.30;99.90
13711;DHT22;6927;51.256;9.410;2023-07-30T01:41:18;16.30;99.90
13711;DHT22;6927;51.256;9.410;2023-07-30T01:43:43;16.30;99.90
13711;DHT22;6927;51.256;9.410;2023-07-30T01:46:09;16.30;99.90
13711;DHT22;6927;51.256;9.410;2023-07-30T01:48:34;16.30;99.90
13711;DHT22;6927;51.256;9.410;2023-07-30T01:51:00;16.20;99.90
13711;DHT22;6927;51.256;9.410;2023-07-30T01:53:25;16.30;99.90
13711;DHT22;6927;51.256;9.410;2023-07-30T01:55:51;16.30;99.90
13711;DHT22;6927;51.256;9.410;2023-07-30T01:58:16;16.20;99.90
13711;DHT22;6927;51.256;9.410;2023-07-30T02:00:42;16.20;99.90
13711;DHT22;6927;51.256;9.410;2023-07-30T02:03:08;16.20;99.90
13711;DHT22;6927;51.256;9.410;2023-07-30T02:05:33;16.10;99.90
13711;DHT22;6927;51.256;9.410;2023-07-30T02:07:59;16.10;99.90
13711;DHT22;6927;51.256;9.410;2023-07-30T02:10:25;16.10;99.90
13711;DHT22;6927;51.256;9.410;2023-07-30T02:12:51;16.00;99.90
13711;DHT22;6927;51.256;9.410;2023-07-30T02:15:16;16.00;99.90
13711;DHT22;6927;51.256;9.410;2023-07-30T02:17:42;16.00;99.90
13711;DHT22;6927;51.256;9.410;2023-07-30T02:20:08;15.90;99.90
13711;DHT22;6927;51.256;9.410;2023-07-30T02:22:34;15.80;99.90
13711;DHT22;6927;51.256;9.410;2023-07-30T02:24:59;15.80;99.90
13711;DHT22;6927;51.256;9.410;2023-07-30T02:27:25;15.70;99.90
13711;DHT22;6927;51.256;9.410;2023-07-30T02:29:50;15.70;99.90
13711;DHT22;6927;51.256;9.410;2023-07-30T02:32:16;15.60;99.90
13711;DHT22;6927;51.256;9.410;2023-07-30T02:34:42;15.60;99.90
13711;DHT22;6927;51.256;9.410;2023-07-30T02:37:07;15.60;99.90
13711;DHT22;6927;51.256;9.410;2023-07-30T02:39:33;15.50;99.90
13711;DHT22;6927;51.256;9.410;2023-07-30T02:41:58;15.50;99.90
13711;DHT22;6927;51.256;9.410;2023-07-30T02:44:24;15.40;99.90
13711;DHT22;6927;51.256;9.410;2023-07-30T02:46:49;15.40;99.90
13711;DHT22;6927;51.256;9.410;2023-07-30T02:49:15;15.40;99.90
13711;DHT22;6927;51.256;9.410;2023-07-30T02:51:40;15.40;99.90
13711;DHT22;6927;51.256;9.410;2023-07-30T02:54:07;15.40;99.90
13711;DHT22;6927;51.256;9.410;2023-07-30T02:56:44;15.30;99.90
13711;DHT22;6927;51.256;9.410;2023-07-30T02:59:10;15.40;99.90
13711;DHT22;6927;51.256;9.410;2023-07-30T03:01:49;15.30;99.90
13711;DHT22;6927;51.256;9.410;2023-07-30T03:04:27;15.30;99.90
13711;DHT22;6927;51.256;9.410;2023-07-30T03:06:52;15.30;99.90
13711;DHT22;6927;51.256;9.410;2023-07-30T03:09:18;15.30;99.90
13711;DHT22;6927;51.256;9.410;2023-07-30T03:11:44;15.30;99.90
13711;DHT22;6927;51.256;9.410;2023-07-30T03:14:09;15.30;99.90
13711;DHT22;6927;51.256;9.410;2023-07-30T03:16:35;15.30;99.90
13711;DHT22;6927;51.256;9.410;2023-07-30T03:19:01;15.30;99.90
13711;DHT22;6927;51.256;9.410;2023-07-30T03:21:26;15.30;99.90
13711;DHT22;6927;51.256;9.410;2023-07-30T03:23:52;15.30;99.90
13711;DHT22;6927;51.256;9.410;2023-07-30T03:26:17;15.30;99.90
13711;DHT22;6927;51.256;9.410;2023-07-30T03:28:43;15.30;99.90
13711;DHT22;6927;51.256;9.410;2023-07-30T03:31:11;15.30;99.90
13711;DHT22;6927;51.256;9.410;2023-07-30T03:33:37;15.30;99.90
13711;DHT22;6927;51.256;9.410;2023-07-30T03:36:04;15.30;99.90
13711;DHT22;6927;51.256;9.410;2023-07-30T03:38:30;15.30;99.90
13711;DHT22;6927;51.256;9.410;2023-07-30T03:40:56;15.30;99.90
13711;DHT22;6927;51.256;9.410;2023-07-30T03:43:21;15.30;99.90
13711;DHT22;6927;51.256;9.410;2023-07-30T03:45:47;15.30;99.90
13711;DHT22;6927;51.256;9.410;2023-07-30T03:48:14;15.30;99.90
13711;DHT22;6927;51.256;9.410;2023-07-30T03:50:39;15.30;99.90
13711;DHT22;6927;51.256;9.410;2023-07-30T03:53:05;15.30;99.90
13711;DHT22;6927;51.256;9.410;2023-07-30T03:55:34;15.20;99.90
13711;DHT22;6927;51.256;9.410;2023-07-30T03:57:59;15.20;99.90
13711;DHT22;6927;51.256;9.410;2023-07-30T04:00:25;15.20;99.90
13711;DHT22;6927;51.256;9.410;2023-07-30T04:02:51;15.20;99.90
13711;DHT22;6927;51.256;9.410;2023-07-30T04:05:16;15.20;99.90
13711;DHT22;6927;51.256;9.410;2023-07-30T04:07:42;15.20;99.90
13711;DHT22;6927;51.256;9.410;2023-07-30T04:10:08;15.10;99.90
13711;DHT22;6927;51.256;9.410;2023-07-30T04:12:33;15.10;99.90
13711;DHT22;6927;51.256;9.410;2023-07-30T04:14:59;15.10;99.90
13711;DHT22;6927;51.256;9.410;2023-07-30T04:17:25;15.10;99.90
13711;DHT22;6927;51.256;9.410;2023-07-30T04:19:58;15.10;99.90
13711;DHT22;6927;51.256;9.410;2023-07-30T04:22:23;15.20;99.90
13711;DHT22;6927;51.256;9.410;2023-07-30T04:24:49;15.20;99.90
13711;DHT22;6927;51.256;9.410;2023-07-30T04:27:18;15.20;99.90
13711;DHT22;6927;51.256;9.410;2023-07-30T04:29:43;15.30;99.90
13711;DHT22;6927;51.256;9.410;2023-07-30T04:32:09;15.30;99.90
13711;DHT22;6927;51.256;9.410;2023-07-30T04:34:35;15.40;99.90
13711;DHT22;6927;51.256;9.410;2023-07-30T04:37:00;15.40;99.90
13711;DHT22;6927;51.256;9.410;2023-07-30T04:39:29;15.50;99.90
13711;DHT22;6927;51.256;9.410;2023-07-30T04:41:54;15.50;99.90
13711;DHT22;6927;51.256;9.410;2023-07-30T04:44:23;15.60;99.90
13711;DHT22;6927;51.256;9.410;2023-07-30T04:46:49;15.60;99.90
13711;DHT22;6927;51.256;9.410;2023-07-30T04:49:15;15.60;99.90
13711;DHT22;6927;51.256;9.410;2023-07-30T04:51:40;15.60;99.90
13711;DHT22;6927;51.256;9.410;2023-07-30T04:54:06;15.60;99.90
13711;DHT22;6927;51.256;9.410;2023-07-30T04:56:32;15.60;99.90
13711;DHT22;6927;51.256;9.410;2023-07-30T04:58:57;15.60;99.90
13711;DHT22;6927;51.256;9.410;2023-07-30T05:01:26;15.70;99.90
13711;DHT22;6927;51.256;9.410;2023-07-30T05:03:53;15.70;99.90
13711;DHT22;6927;51.256;9.410;2023-07-30T05:06:19;15.80;99.90
13711;DHT22;6927;51.256;9.410;2023-07-30T05:08:47;15.90;99.90
13711;DHT22;6927;51.256;9.410;2023-07-30T05:11:15;16.00;99.90
13711;DHT22;6927;51.256;9.410;2023-07-30T05:13:41;16.00;99.90
13711;DHT22;6927;51.256;9.410;2023-07-30T05:16:06;16.20;99.90
13711;DHT22;6927;51.256;9.410;2023-07-30T05:18:32;16.30;99.90
13711;DHT22;6927;51.256;9.410;2023-07-30T05:20:58;16.30;99.90
13711;DHT22;6927;51.256;9.410;2023-07-30T05:23:24;16.50;99.90
13711;DHT22;6927;51.256;9.410;2023-07-30T05:25:49;16.60;99.90
13711;DHT22;6927;51.256;9.410;2023-07-30T05:28:15;16.70;99.90
13711;DHT22;6927;51.256;9.410;2023-07-30T05:30:41;16.80;99.90
13711;DHT22;6927;51.256;9.410;2023-07-30T05:33:06;16.90;99.90
13711;DHT22;6927;51.256;9.410;2023-07-30T05:35:32;17.00;99.90
13711;DHT22;6927;51.256;9.410;2023-07-30T05:37:57;17.10;99.90
13711;DHT22;6927;51.256;9.410;2023-07-30T05:40:23;17.20;99.90
13711;DHT22;6927;51.256;9.410;2023-07-30T05:42:49;17.20;99.90
13711;DHT22;6927;51.256;9.410;2023-07-30T05:45:14;17.20;99.90
13711;DHT22;6927;51.256;9.410;2023-07-30T05:47:40;17.30;99.90
13711;DHT22;6927;51.256;9.410;2023-07-30T05:50:06;17.30;99.90
13711;DHT22;6927;51.256;9.410;2023-07-30T05:52:32;17.40;99.90
13711;DHT22;6927;51.256;9.410;2023-07-30T05:54:58;17.50;99.90
13711;DHT22;6927;51.256;9.410;2023-07-30T05:57:24;17.60;99.90
13711;DHT22;6927;51.256;9.410;2023-07-30T05:59:49;17.80;99.90
13711;DHT22;6927;51.256;9.410;2023-07-30T06:02:15;17.80;99.90
13711;DHT22;6927;51.256;9.410;2023-07-30T06:04:41;17.90;99.90
13711;DHT22;6927;51.256;9.410;2023-07-30T06:07:06;18.00;99.90
13711;DHT22;6927;51.256;9.410;2023-07-30T06:09:32;18.10;99.90
13711;DHT22;6927;51.256;9.410;2023-07-30T06:11:58;18.20;99.90
13711;DHT22;6927;51.256;9.410;2023-07-30T06:14:24;18.30;99.90
13711;DHT22;6927;51.256;9.410;2023-07-30T06:16:50;18.40;99.90
13711;DHT22;6927;51.256;9.410;2023-07-30T06:19:16;18.40;99.90
13711;DHT22;6927;51.256;9.410;2023-07-30T06:21:42;18.60;99.90
13711;DHT22;6927;51.256;9.410;2023-07-30T06:24:07;18.70;99.90
13711;DHT22;6927;51.256;9.410;2023-07-30T06:26:33;18.90;99.90
13711;DHT22;6927;51.256;9.410;2023-07-30T06:28:59;19.00;99.90
13711;DHT22;6927;51.256;9.410;2023-07-30T06:31:24;19.40;99.90
13711;DHT22;6927;51.256;9.410;2023-07-30T06:33:50;19.90;99.90
13711;DHT22;6927;51.256;9.410;2023-07-30T06:36:15;20.40;99.90
13711;DHT22;6927;51.256;9.410;2023-07-30T06:38:41;20.90;99.90
13711;DHT22;6927;51.256;9.410;2023-07-30T06:41:06;21.60;99.90
13711;DHT22;6927;51.256;9.410;2023-07-30T06:43:32;22.10;99.90
13711;DHT22;6927;51.256;9.410;2023-07-30T06:45:58;22.30;99.90
13711;DHT22;6927;51.256;9.410;2023-07-30T06:48:23;22.60;99.90
13711;DHT22;6927;51.256;9.410;2023-07-30T06:50:49;22.20;99.90
13711;DHT22;6927;51.256;9.410;2023-07-30T06:53:14;21.40;99.90
13711;DHT22;6927;51.256;9.410;2023-07-30T06:55:40;20.80;99.90
13711;DHT22;6927;51.256;9.410;2023-07-30T06:58:06;20.30;99.90
13711;DHT22;6927;51.256;9.410;2023-07-30T07:00:31;19.90;99.90
13711;DHT22;6927;51.256;9.410;2023-07-30T07:02:57;19.70;99.90
13711;DHT22;6927;51.256;9.410;2023-07-30T07:05:23;19.50;99.90
13711;DHT22;6927;51.256;9.410;2023-07-30T07:07:49;19.40;99.90
13711;DHT22;6927;51.256;9.410;2023-07-30T07:10:14;19.30;99.90
13711;DHT22;6927;51.256;9.410;2023-07-30T07:12:40;19.30;99.90
13711;DHT22;6927;51.256;9.410;2023-07-30T07:15:06;19.50;99.90
13711;DHT22;6927;51.256;9.410;2023-07-30T07:17:32;19.80;99.90
13711;DHT22;6927;51.256;9.410;2023-07-30T07:19:58;20.70;99.90
13711;DHT22;6927;51.256;9.410;2023-07-30T07:22:24;22.00;99.90
13711;DHT22;6927;51.256;9.410;2023-07-30T07:24:51;22.70;99.90
13711;DHT22;6927;51.256;9.410;2023-07-30T07:27:18;23.20;99.90
13711;DHT22;6927;51.256;9.410;2023-07-30T07:29:44;23.40;99.90
13711;DHT22;6927;51.256;9.410;2023-07-30T07:32:09;23.10;99.90
13711;DHT22;6927;51.256;9.410;2023-07-30T07:34:35;23.30;99.90
13711;DHT22;6927;51.256;9.410;2023-07-30T07:37:01;23.10;99.90
13711;DHT22;6927;51.256;9.410;2023-07-30T07:39:27;22.80;99.90
13711;DHT22;6927;51.256;9.410;2023-07-30T07:41:53;22.50;99.90
13711;DHT22;6927;51.256;9.410;2023-07-30T07:44:18;22.10;99.90
13711;DHT22;6927;51.256;9.410;2023-07-30T07:46:44;21.70;99.90
13711;DHT22;6927;51.256;9.410;2023-07-30T07:49:10;21.40;99.90
13711;DHT22;6927;51.256;9.410;2023-07-30T07:51:35;21.00;99.90
13711;DHT22;6927;51.256;9.410;2023-07-30T07:54:01;20.70;99.90
13711;DHT22;6927;51.256;9.410;2023-07-30T07:56:26;20.60;99.90
13711;DHT22;6927;51.256;9.410;2023-07-30T07:58:52;20.50;99.90
13711;DHT22;6927;51.256;9.410;2023-07-30T08:01:17;20.50;99.90
13711;DHT22;6927;51.256;9.410;2023-07-30T08:03:44;20.40;99.90
13711;DHT22;6927;51.256;9.410;2023-07-30T08:06:09;20.50;99.90
13711;DHT22;6927;51.256;9.410;2023-07-30T08:08:35;20.60;99.90
13711;DHT22;6927;51.256;9.410;2023-07-30T08:11:08;20.60;99.90
13711;DHT22;6927;51.256;9.410;2023-07-30T08:13:34;20.50;99.90
13711;DHT22;6927;51.256;9.410;2023-07-30T08:16:00;20.40;99.90
13711;DHT22;6927;51.256;9.410;2023-07-30T08:18:26;20.30;99.90
13711;DHT22;6927;51.256;9.410;2023-07-30T08:20:53;20.20;99.90
13711;DHT22;6927;51.256;9.410;2023-07-30T08:23:18;20.10;99.90
13711;DHT22;6927;51.256;9.410;2023-07-30T08:25:44;20.10;99.90
13711;DHT22;6927;51.256;9.410;2023-07-30T08:28:12;20.10;99.90
13711;DHT22;6927;51.256;9.410;2023-07-30T08:30:39;20.10;99.90
13711;DHT22;6927;51.256;9.410;2023-07-30T08:33:04;20.10;99.90
13711;DHT22;6927;51.256;9.410;2023-07-30T08:35:33;20.10;99.90
13711;DHT22;6927;51.256;9.410;2023-07-30T08:38:02;20.00;99.90
13711;DHT22;6927;51.256;9.410;2023-07-30T08:40:28;20.00;99.90
13711;DHT22;6927;51.256;9.410;2023-07-30T08:42:54;19.80;99.90
13711;DHT22;6927;51.256;9.410;2023-07-30T08:45:20;19.70;99.90
13711;DHT22;6927;51.256;9.410;2023-07-30T08:47:46;19.60;99.90
13711;DHT22;6927;51.256;9.410;2023-07-30T08:50:13;19.50;99.90
13711;DHT22;6927;51.256;9.410;2023-07-30T08:52:39;19.40;99.90
13711;DHT22;6927;51.256;9.410;2023-07-30T08:55:05;19.40;99.90
13711;DHT22;6927;51.256;9.410;2023-07-30T08:57:32;19.40;99.90
13711;DHT22;6927;51.256;9.410;2023-07-30T09:00:09;19.30;99.90
13711;DHT22;6927;51.256;9.410;2023-07-30T09:05:07;19.20;99.90
13711;DHT22;6927;51.256;9.410;2023-07-30T09:07:33;19.20;99.90
13711;DHT22;6927;51.256;9.410;2023-07-30T09:09:59;19.20;99.90
13711;DHT22;6927;51.256;9.410;2023-07-30T09:12:31;19.20;99.90
13711;DHT22;6927;51.256;9.410;2023-07-30T09:14:58;19.10;99.90
13711;DHT22;6927;51.256;9.410;2023-07-30T09:17:24;18.90;99.90
13711;DHT22;6927;51.256;9.410;2023-07-30T09:19:51;18.80;99.90
13711;DHT22;6927;51.256;9.410;2023-07-30T09:22:35;18.70;99.90
13711;DHT22;6927;51.256;9.410;2023-07-30T09:25:04;18.50;99.90
13711;DHT22;6927;51.256;9.410;2023-07-30T09:27:31;18.40;99.90
13711;DHT22;6927;51.256;9.410;2023-07-30T09:29:59;18.30;99.90
13711;DHT22;6927;51.256;9.410;2023-07-30T09:32:30;18.20;99.90
13711;DHT22;6927;51.256;9.410;2023-07-30T09:35:07;18.10;99.90
13711;DHT22;6927;51.256;9.410;2023-07-30T09:37:36;17.90;99.90
13711;DHT22;6927;51.256;9.410;2023-07-30T09:40:07;17.80;99.90
13711;DHT22;6927;51.256;9.410;2023-07-30T09:42:37;17.70;99.90
13711;DHT22;6927;51.256;9.410;2023-07-30T09:45:07;17.70;99.90
13711;DHT22;6927;51.256;9.410;2023-07-30T09:47:33;17.70;99.90
13711;DHT22;6927;51.256;9.410;2023-07-30T09:50:02;17.70;99.90
13711;DHT22;6927;51.256;9.410;2023-07-30T09:52:29;17.70;99.90
13711;DHT22;6927;51.256;9.410;2023-07-30T09:55:00;17.60;99.90
13711;DHT22;6927;51.256;9.410;2023-07-30T09:57:25;17.70;99.90
13711;DHT22;6927;51.256;9.410;2023-07-30T09:59:51;17.60;99.90
13711;DHT22;6927;51.256;9.410;2023-07-30T10:02:18;17.60;99.90
13711;DHT22;6927;51.256;9.410;2023-07-30T10:04:48;17.60;99.90
13711;DHT22;6927;51.256;9.410;2023-07-30T10:07:20;17.60;99.90
13711;DHT22;6927;51.256;9.410;2023-07-30T10:09:48;17.60;99.90
13711;DHT22;6927;51.256;9.410;2023-07-30T10:12:17;17.60;99.90
13711;DHT22;6927;51.256;9.410;2023-07-30T10:14:44;17.70;99.90
13711;DHT22;6927;51.256;9.410;2023-07-30T10:17:11;17.80;99.90
13711;DHT22;6927;51.256;9.410;2023-07-30T10:19:37;17.90;99.90
13711;DHT22;6927;51.256;9.410;2023-07-30T10:24:38;18.00;99.90
13711;DHT22;6927;51.256;9.410;2023-07-30T10:27:08;18.00;99.90
13711;DHT22;6927;51.256;9.410;2023-07-30T10:29:36;18.10;99.90
13711;DHT22;6927;51.256;9.410;2023-07-30T10:32:03;18.10;99.90
13711;DHT22;6927;51.256;9.410;2023-07-30T10:34:49;18.00;99.90
13711;DHT22;6927;51.256;9.410;2023-07-30T10:37:20;17.90;99.90
13711;DHT22;6927;51.256;9.410;2023-07-30T10:39:48;17.70;99.90
13711;DHT22;6927;51.256;9.410;2023-07-30T10:42:14;17.60;99.90
13711;DHT22;6927;51.256;9.410;2023-07-30T10:44:44;17.50;99.90
13711;DHT22;6927;51.256;9.410;2023-07-30T10:47:10;17.30;99.90
13711;DHT22;6927;51.256;9.410;2023-07-30T10:49:39;17.10;99.90
13711;DHT22;6927;51.256;9.410;2023-07-30T10:52:13;17.00;99.90
13711;DHT22;6927;51.256;9.410;2023-07-30T10:54:41;16.90;99.90
13711;DHT22;6927;51.256;9.410;2023-07-30T10:57:07;16.80;99.90
13711;DHT22;6927;51.256;9.410;2023-07-30T10:59:37;16.90;99.90
13711;DHT22;6927;51.256;9.410;2023-07-30T11:02:03;16.80;99.90
13711;DHT22;6927;51.256;9.410;2023-07-30T11:04:34;16.70;99.90
13711;DHT22;6927;51.256;9.410;2023-07-30T11:07:00;16.70;99.90
13711;DHT22;6927;51.256;9.410;2023-07-30T11:09:27;16.70;99.90
13711;DHT22;6927;51.256;9.410;2023-07-30T11:11:55;16.60;99.90
13711;DHT22;6927;51.256;9.410;2023-07-30T11:14:22;16.60;99.90
13711;DHT22;6927;51.256;9.410;2023-07-30T11:16:52;16.60;99.90
13711;DHT22;6927;51.256;9.410;2023-07-30T11:19:28;16.60;99.90
13711;DHT22;6927;51.256;9.410;2023-07-30T11:21:57;16.50;99.90
13711;DHT22;6927;51.256;9.410;2023-07-30T11:24:36;16.60;99.90
13711;DHT22;6927;51.256;9.410;2023-07-30T11:27:02;16.70;99.90
13711;DHT22;6927;51.256;9.410;2023-07-30T11:29:28;16.80;99.90
13711;DHT22;6927;51.256;9.410;2023-07-30T11:32:03;17.00;99.90
13711;DHT22;6927;51.256;9.410;2023-07-30T11:34:29;17.20;99.90
13711;DHT22;6927;51.256;9.410;2023-07-30T11:36:56;17.40;99.90
13711;DHT22;6927;51.256;9.410;2023-07-30T11:39:23;17.60;99.90
13711;DHT22;6927;51.256;9.410;2023-07-30T11:41:49;17.70;99.90
13711;DHT22;6927;51.256;9.410;2023-07-30T11:44:31;17.80;99.90
13711;DHT22;6927;51.256;9.410;2023-07-30T11:46:57;17.90;99.90
13711;DHT22;6927;51.256;9.410;2023-07-30T11:49:23;17.90;99.90
13711;DHT22;6927;51.256;9.410;2023-07-30T11:51:51;17.90;99.90
13711;DHT22;6927;51.256;9.410;2023-07-30T11:54:29;17.80;99.90
13711;DHT22;6927;51.256;9.410;2023-07-30T11:56:56;17.80;99.90
13711;DHT22;6927;51.256;9.410;2023-07-30T11:59:22;17.80;99.90
13711;DHT22;6927;51.256;9.410;2023-07-30T12:01:48;17.90;99.90
13711;DHT22;6927;51.256;9.410;2023-07-30T12:04:14;18.10;99.90
13711;DHT22;6927;51.256;9.410;2023-07-30T12:06:41;18.20;99.90
13711;DHT22;6927;51.256;9.410;2023-07-30T12:09:15;18.40;99.90
13711;DHT22;6927;51.256;9.410;2023-07-30T12:12:01;18.80;99.90
13711;DHT22;6927;51.256;9.410;2023-07-30T12:14:29;19.50;99.90
13711;DHT22;6927;51.256;9.410;2023-07-30T12:17:07;19.90;99.90
13711;DHT22;6927;51.256;9.410;2023-07-30T12:19:33;20.30;99.90
13711;DHT22;6927;51.256;9.410;2023-07-30T12:21:58;20.50;99.90
13711;DHT22;6927;51.256;9.410;2023-07-30T12:24:24;21.00;99.90
13711;DHT22;6927;51.256;9.410;2023-07-30T12:26:49;21.60;99.90
13711;DHT22;6927;51.256;9.410;2023-07-30T12:29:15;22.00;99.90
13711;DHT22;6927;51.256;9.410;2023-07-30T12:31:41;22.20;99.90
13711;DHT22;6927;51.256;9.410;2023-07-30T12:34:06;21.90;99.90
13711;DHT22;6927;51.256;9.410;2023-07-30T12:36:32;21.50;99.90
13711;DHT22;6927;51.256;9.410;2023-07-30T12:38:57;21.40;99.90
13711;DHT22;6927;51.256;9.410;2023-07-30T12:41:23;21.20;99.90
13711;DHT22;6927;51.256;9.410;2023-07-30T12:43:55;21.00;99.90
13711;DHT22;6927;51.256;9.410;2023-07-30T12:46:24;21.00;99.90
13711;DHT22;6927;51.256;9.410;2023-07-30T12:48:52;21.10;99.90
13711;DHT22;6927;51.256;9.410;2023-07-30T12:51:18;21.60;99.90
13711;DHT22;6927;51.256;9.410;2023-07-30T12:53:44;21.90;99.90
13711;DHT22;6927;51.256;9.410;2023-07-30T12:56:09;21.50;99.90
13711;DHT22;6927;51.256;9.410;2023-07-30T12:58:35;21.40;99.90
13711;DHT22;6927;51.256;9.410;2023-07-30T13:01:02;21.40;99.90
13711;DHT22;6927;51.256;9.410;2023-07-30T13:03:28;21.30;99.90
13711;DHT22;6927;51.256;9.410;2023-07-30T13:05:54;21.20;99.90
13711;DHT22;6927;51.256;9.410;2023-07-30T13:08:20;21.20;99.90
13711;DHT22;6927;51.256;9.410;2023-07-30T13:10:46;21.20;99.90
13711;DHT22;6927;51.256;9.410;2023-07-30T13:13:11;21.20;99.90
13711;DHT22;6927;51.256;9.410;2023-07-30T13:15:37;21.20;99.90
13711;DHT22;6927;51.256;9.410;2023-07-30T13:18:03;21.10;99.90
13711;DHT22;6927;51.256;9.410;2023-07-30T13:20:29;21.00;99.90
13711;DHT22;6927;51.256;9.410;2023-07-30T13:22:56;20.90;99.90
13711;DHT22;6927;51.256;9.410;2023-07-30T13:25:22;21.00;99.90
13711;DHT22;6927;51.256;9.410;2023-07-30T13:27:48;21.30;99.90
13711;DHT22;6927;51.256;9.410;2023-07-30T13:30:14;21.60;99.90
13711;DHT22;6927;51.256;9.410;2023-07-30T13:32:40;21.70;99.90
13711;DHT22;6927;51.256;9.410;2023-07-30T13:35:06;21.90;99.90
13711;DHT22;6927;51.256;9.410;2023-07-30T13:37:32;22.00;99.90
13711;DHT22;6927;51.256;9.410;2023-07-30T13:39:57;22.10;99.90
13711;DHT22;6927;51.256;9.410;2023-07-30T13:42:23;22.50;99.90
13711;DHT22;6927;51.256;9.410;2023-07-30T13:44:48;22.90;99.90
13711;DHT22;6927;51.256;9.410;2023-07-30T13:47:14;23.20;99.90
13711;DHT22;6927;51.256;9.410;2023-07-30T13:49:39;23.30;99.90
13711;DHT22;6927;51.256;9.410;2023-07-30T13:52:05;23.20;99.90
13711;DHT22;6927;51.256;9.410;2023-07-30T13:54:31;23.00;99.90
13711;DHT22;6927;51.256;9.410;2023-07-30T13:56:56;22.80;99.90
13711;DHT22;6927;51.256;9.410;2023-07-30T13:59:22;22.40;99.90
13711;DHT22;6927;51.256;9.410;2023-07-30T14:01:47;22.20;99.90
13711;DHT22;6927;51.256;9.410;2023-07-30T14:04:13;22.00;99.90
13711;DHT22;6927;51.256;9.410;2023-07-30T14:06:39;21.90;99.90
13711;DHT22;6927;51.256;9.410;2023-07-30T14:09:04;21.80;99.90
13711;DHT22;6927;51.256;9.410;2023-07-30T14:11:30;21.90;99.90
13711;DHT22;6927;51.256;9.410;2023-07-30T14:13:56;22.30;99.90
13711;DHT22;6927;51.256;9.410;2023-07-30T14:16:23;22.60;99.90
13711;DHT22;6927;51.256;9.410;2023-07-30T14:18:48;23.20;99.90
13711;DHT22;6927;51.256;9.410;2023-07-30T14:21:14;23.40;99.90
13711;DHT22;6927;51.256;9.410;2023-07-30T14:23:40;23.20;99.90
13711;DHT22;6927;51.256;9.410;2023-07-30T14:26:05;22.80;99.90
13711;DHT22;6927;51.256;9.410;2023-07-30T14:28:32;22.90;99.90
13711;DHT22;6927;51.256;9.410;2023-07-30T14:30:58;23.20;99.90
13711;DHT22;6927;51.256;9.410;2023-07-30T14:33:23;23.40;99.90
13711;DHT22;6927;51.256;9.410;2023-07-30T14:35:49;23.60;99.90
13711;DHT22;6927;51.256;9.410;2023-07-30T14:38:14;23.60;99.90
13711;DHT22;6927;51.256;9.410;2023-07-30T14:40:42;23.60;99.90
13711;DHT22;6927;51.256;9.410;2023-07-30T14:43:08;23.50;99.90
13711;DHT22;6927;51.256;9.410;2023-07-30T14:45:34;23.40;99.90
13711;DHT22;6927;51.256;9.410;2023-07-30T14:47:59;23.40;99.90
13711;DHT22;6927;51.256;9.410;2023-07-30T14:50:26;23.40;99.90
13711;DHT22;6927;51.256;9.410;2023-07-30T14:52:52;23.00;99.90
13711;DHT22;6927;51.256;9.410;2023-07-30T14:55:18;22.80;99.90
13711;DHT22;6927;51.256;9.410;2023-07-30T14:57:43;22.60;99.90
13711;DHT22;6927;51.256;9.410;2023-07-30T15:00:28;22.70;99.90
13711;DHT22;6927;51.256;9.410;2023-07-30T15:02:54;22.80;99.90
13711;DHT22;6927;51.256;9.410;2023-07-30T15:05:19;22.70;99.90
13711;DHT22;6927;51.256;9.410;2023-07-30T15:07:45;22.60;99.90
13711;DHT22;6927;51.256;9.410;2023-07-30T15:10:11;22.50;99.90
13711;DHT22;6927;51.256;9.410;2023-07-30T15:12:37;22.40;99.90
13711;DHT22;6927;51.256;9.410;2023-07-30T15:15:06;22.30;99.90
13711;DHT22;6927;51.256;9.410;2023-07-30T15:17:32;22.10;99.90
13711;DHT22;6927;51.256;9.410;2023-07-30T15:19:57;22.10;99.90
13711;DHT22;6927;51.256;9.410;2023-07-30T15:22:25;22.10;99.90
13711;DHT22;6927;51.256;9.410;2023-07-30T15:24:50;21.90;99.90
13711;DHT22;6927;51.256;9.410;2023-07-30T15:27:16;21.80;99.90
13711;DHT22;6927;51.256;9.410;2023-07-30T15:29:43;21.90;99.90
13711;DHT22;6927;51.256;9.410;2023-07-30T15:32:09;22.10;99.90
13711;DHT22;6927;51.256;9.410;2023-07-30T15:34:35;22.20;99.90
13711;DHT22;6927;51.256;9.410;2023-07-30T15:37:00;22.40;99.90
13711;DHT22;6927;51.256;9.410;2023-07-30T15:39:28;22.60;99.90
13711;DHT22;6927;51.256;9.410;2023-07-30T15:41:53;22.90;99.90
13711;DHT22;6927;51.256;9.410;2023-07-30T15:44:19;23.00;99.90
13711;DHT22;6927;51.256;9.410;2023-07-30T15:46:46;22.60;99.90